createdAt,value
2022-11-27T00:00:59.210Z,22.33
2022-11-27T00:03:27.611Z,24.07
2022-11-27T00:05:58.896Z,25.27
2022-11-27T00:08:27.061Z,24.77
2022-11-27T00:10:54.979Z,25.70
2022-11-27T00:13:22.945Z,27.63
2022-11-27T00:15:51.739Z,26.03
2022-11-27T00:18:19.869Z,26.37
2022-11-27T00:20:47.822Z,25.87
2022-11-27T00:23:17.140Z,25.93
2022-11-27T00:25:51.288Z,26.70
2022-11-27T00:28:19.342Z,28.07
2022-11-27T00:30:47.426Z,25.80
2022-11-27T00:33:15.377Z,26.57
2022-11-27T00:35:43.581Z,25.20
2022-11-27T00:38:11.589Z,26.00
2022-11-27T00:40:40.901Z,25.30
2022-11-27T00:43:08.881Z,26.47
2022-11-27T00:45:36.802Z,26.97
2022-11-27T00:48:05.104Z,26.17
2022-11-27T00:50:33.443Z,25.60
2022-11-27T00:53:01.452Z,25.93
2022-11-27T00:55:29.416Z,25.40
2022-11-27T00:57:58.766Z,26.03
2022-11-27T01:00:26.709Z,24.50
2022-11-27T01:02:54.725Z,25.10
2022-11-27T01:05:22.850Z,24.97
2022-11-27T01:07:51.092Z,23.73
2022-11-27T01:10:19.227Z,25.30
2022-11-27T01:12:50.061Z,26.47
2022-11-27T01:15:19.658Z,25.70
2022-11-27T01:17:47.730Z,27.50
2022-11-27T01:20:15.765Z,28.47
2022-11-27T01:22:43.737Z,28.70
2022-11-27T01:25:11.682Z,27.83
2022-11-27T01:27:39.661Z,26.47
2022-11-27T01:30:09.122Z,27.37
2022-11-27T01:32:38.466Z,27.37
2022-11-27T01:35:07.193Z,28.67
2022-11-27T01:37:35.161Z,29.30
2022-11-27T01:40:03.130Z,29.07
2022-11-27T01:42:31.126Z,30.10
2022-11-27T01:44:59.091Z,29.50
2022-11-27T01:47:42.723Z,29.87
2022-11-27T01:50:16.006Z,32.27
2022-11-27T01:52:49.022Z,30.80
2022-11-27T01:55:21.631Z,31.10
2022-11-27T01:57:52.321Z,29.07
2022-11-27T02:00:22.820Z,30.27
2022-11-27T02:02:52.282Z,31.13
2022-11-27T02:05:23.852Z,30.13
2022-11-27T02:07:53.367Z,29.10
2022-11-27T02:10:22.043Z,29.97
2022-11-27T02:12:57.424Z,32.13
2022-11-27T02:15:32.350Z,31.97
2022-11-27T02:18:10.222Z,31.57
2022-11-27T02:20:53.832Z,32.57
2022-11-27T02:23:54.622Z,31.07
2022-11-27T02:26:44.287Z,30.70
2022-11-27T02:29:14.739Z,29.57
2022-11-27T02:31:48.642Z,28.27
2022-11-27T02:34:24.113Z,26.63
2022-11-27T02:36:58.205Z,27.23
2022-11-27T02:39:32.724Z,27.80
2022-11-27T02:42:07.230Z,28.07
2022-11-27T02:44:42.110Z,28.07
2022-11-27T02:47:13.027Z,28.83
2022-11-27T02:49:43.739Z,27.07
2022-11-27T02:52:14.504Z,26.83
2022-11-27T02:54:44.455Z,28.13
2022-11-27T02:57:14.073Z,28.00
2022-11-27T02:59:45.624Z,27.37
2022-11-27T03:02:19.954Z,28.23
2022-11-27T03:04:51.291Z,27.77
2022-11-27T03:07:29.197Z,27.73
2022-11-27T03:10:04.286Z,27.50
2022-11-27T03:12:32.282Z,26.17
2022-11-27T03:15:01.765Z,27.20
2022-11-27T03:17:42.751Z,25.77
2022-11-27T03:20:18.241Z,24.57
2022-11-27T03:22:46.341Z,26.10
2022-11-27T03:25:16.153Z,26.10
2022-11-27T03:27:49.750Z,25.07
2022-11-27T03:30:19.283Z,24.43
2022-11-27T03:32:47.323Z,22.90
2022-11-27T03:35:19.620Z,23.53
2022-11-27T03:37:47.893Z,19.63
2022-11-27T03:40:17.597Z,21.37
2022-11-27T03:42:57.395Z,20.80
2022-11-27T03:45:35.296Z,20.13
2022-11-27T03:48:14.274Z,21.83
2022-11-27T03:50:54.694Z,19.00
2022-11-27T03:53:32.486Z,20.33
2022-11-27T03:56:09.947Z,20.20
2022-11-27T03:58:44.975Z,20.63
2022-11-27T04:01:18.566Z,22.20
2022-11-27T04:03:46.579Z,22.30
2022-11-27T04:06:14.662Z,21.90
2022-11-27T04:08:43.460Z,22.47
2022-11-27T04:11:11.418Z,20.93
2022-11-27T04:13:39.441Z,20.93
2022-11-27T04:16:08.539Z,20.87
2022-11-27T04:18:38.004Z,19.77
2022-11-27T04:21:06.322Z,19.67
2022-11-27T04:23:34.280Z,20.83
2022-11-27T04:26:02.286Z,22.67
2022-11-27T04:28:30.655Z,23.37
2022-11-27T04:30:58.744Z,25.03
2022-11-27T04:33:26.770Z,25.00
2022-11-27T04:35:56.285Z,28.93
2022-11-27T04:38:25.073Z,25.90
2022-11-27T04:40:53.678Z,27.63
2022-11-27T04:43:21.855Z,29.83
2022-11-27T04:45:49.877Z,28.87
2022-11-27T04:48:17.823Z,30.37
2022-11-27T04:50:45.794Z,30.40
2022-11-27T04:53:15.106Z,30.57
2022-11-27T04:55:43.088Z,33.47
2022-11-27T04:58:11.063Z,31.63
2022-11-27T05:00:39.053Z,30.90
2022-11-27T05:03:07.076Z,31.93
2022-11-27T05:05:35.158Z,31.27
2022-11-27T05:08:03.241Z,31.03
2022-11-27T05:10:32.579Z,31.70
2022-11-27T05:13:00.569Z,30.03
2022-11-27T05:15:28.580Z,29.50
2022-11-27T05:17:56.535Z,31.73
2022-11-27T05:20:24.544Z,29.70
2022-11-27T05:22:52.533Z,30.37
2022-11-27T05:25:20.526Z,31.47
2022-11-27T05:27:49.898Z,30.37
2022-11-27T05:30:17.940Z,29.13
2022-11-27T05:32:45.914Z,29.97
2022-11-27T05:35:13.937Z,31.80
2022-11-27T05:37:41.894Z,30.53
2022-11-27T05:40:10.488Z,31.07
2022-11-27T05:42:38.454Z,32.23
2022-11-27T05:45:09.177Z,31.13
2022-11-27T05:47:37.145Z,30.93
2022-11-27T05:50:05.567Z,32.83
2022-11-27T05:52:33.579Z,30.77
2022-11-27T05:55:01.687Z,30.60
2022-11-27T05:57:30.981Z,30.70
2022-11-27T05:59:59.109Z,29.47
2022-11-27T06:02:29.646Z,30.97
2022-11-27T06:04:57.917Z,29.90
2022-11-27T06:07:25.972Z,28.77
2022-11-27T06:09:53.996Z,30.37
2022-11-27T06:12:21.985Z,31.20
2022-11-27T06:14:49.960Z,31.20
2022-11-27T06:17:18.035Z,30.13
2022-11-27T06:19:47.372Z,30.23
2022-11-27T06:22:15.352Z,30.40
2022-11-27T06:24:43.447Z,28.90
2022-11-27T06:27:11.493Z,30.43
2022-11-27T06:29:39.651Z,29.80
2022-11-27T06:32:07.772Z,30.23
2022-11-27T06:34:35.781Z,30.07
2022-11-27T06:37:08.057Z,32.80
2022-11-27T06:39:39.868Z,30.87
2022-11-27T06:42:07.861Z,31.40
2022-11-27T06:44:35.848Z,30.73
2022-11-27T06:47:03.875Z,31.50
2022-11-27T06:49:31.839Z,31.00
2022-11-27T06:51:59.834Z,34.03
2022-11-27T06:54:29.234Z,31.93
2022-11-27T06:56:58.410Z,31.23
2022-11-27T06:59:26.393Z,33.50
2022-11-27T07:01:54.541Z,33.50
2022-11-27T07:04:22.746Z,33.50
2022-11-27T07:06:50.818Z,34.43
2022-11-27T07:09:19.006Z,35.00
2022-11-27T07:11:48.413Z,34.40
2022-11-27T07:14:16.386Z,35.17
2022-11-27T07:16:44.430Z,33.07
2022-11-27T07:19:12.460Z,35.13
2022-11-27T07:21:40.939Z,32.60
2022-11-27T07:24:09.450Z,33.10
2022-11-27T07:26:37.442Z,33.60
2022-11-27T07:29:06.764Z,34.77
2022-11-27T07:31:34.927Z,33.93
2022-11-27T07:34:05.731Z,31.67
2022-11-27T07:36:34.979Z,31.97
2022-11-27T07:39:02.938Z,31.63
2022-11-27T07:41:34.071Z,30.50
2022-11-27T07:44:02.883Z,32.03
2022-11-27T07:46:32.233Z,33.60
2022-11-27T07:49:01.309Z,31.90
2022-11-27T07:51:29.769Z,32.03
2022-11-27T07:53:57.909Z,31.47
2022-11-27T07:56:25.920Z,30.13
2022-11-27T07:58:53.886Z,29.70
2022-11-27T08:01:22.357Z,28.93
2022-11-27T08:03:52.038Z,28.87
2022-11-27T08:06:22.551Z,29.87
2022-11-27T08:08:51.514Z,28.37
2022-11-27T08:11:21.776Z,27.30
2022-11-27T08:13:50.584Z,26.63
2022-11-27T08:16:18.690Z,24.17
2022-11-27T08:18:46.734Z,23.50
2022-11-27T08:21:16.360Z,22.70
2022-11-27T08:23:44.328Z,23.33
2022-11-27T08:26:13.725Z,21.87
2022-11-27T08:28:42.480Z,21.53
2022-11-27T08:31:12.456Z,19.93
2022-11-27T08:33:40.548Z,19.83
2022-11-27T08:36:13.666Z,19.77
2022-11-27T08:38:47.278Z,18.93
2022-11-27T08:41:15.350Z,20.67
2022-11-27T08:43:43.413Z,19.40
2022-11-27T08:46:12.065Z,19.47
2022-11-27T08:48:40.376Z,19.23
2022-11-27T08:51:10.441Z,18.63
2022-11-27T08:53:39.292Z,21.67
2022-11-27T08:56:10.706Z,21.20
2022-11-27T08:58:41.015Z,19.60
2022-11-27T09:01:11.017Z,19.33
2022-11-27T09:03:39.533Z,18.20
2022-11-27T09:06:09.287Z,18.80
2022-11-27T09:08:37.410Z,18.83
2022-11-27T09:11:05.746Z,18.80
2022-11-27T09:13:36.958Z,20.20
2022-11-27T09:16:06.419Z,18.83
2022-11-27T09:18:35.081Z,19.83
2022-11-27T09:21:04.962Z,18.47
2022-11-27T09:23:33.487Z,18.57
2022-11-27T09:26:02.337Z,17.60
2022-11-27T09:28:31.831Z,18.20
2022-11-27T09:31:03.555Z,18.33
2022-11-27T09:33:33.214Z,17.33
2022-11-27T09:36:05.865Z,17.53
2022-11-27T09:38:34.030Z,15.47
2022-11-27T09:41:06.338Z,15.27
2022-11-27T09:43:43.010Z,15.63
2022-11-27T09:46:17.642Z,15.43
2022-11-27T09:48:50.344Z,15.03
2022-11-27T09:51:26.561Z,13.57
2022-11-27T09:54:01.935Z,14.10
2022-11-27T09:56:31.054Z,14.47
2022-11-27T09:59:00.634Z,14.23
2022-11-27T10:01:40.420Z,14.43
2022-11-27T10:04:14.886Z,16.33
2022-11-27T10:06:53.001Z,17.27
2022-11-27T10:09:33.461Z,16.57
2022-11-27T10:12:08.590Z,16.80
2022-11-27T10:14:48.345Z,15.50
2022-11-27T10:17:21.878Z,15.90
2022-11-27T10:19:56.328Z,15.07
2022-11-27T10:22:30.364Z,15.73
2022-11-27T10:25:12.403Z,15.30
2022-11-27T10:27:46.308Z,14.77
2022-11-27T10:30:17.594Z,14.53
2022-11-27T10:32:56.520Z,14.43
2022-11-27T10:35:26.365Z,15.07
2022-11-27T10:37:59.748Z,13.57
2022-11-27T10:40:34.342Z,14.87
2022-11-27T10:43:08.779Z,15.53
2022-11-27T10:45:44.322Z,15.67
2022-11-27T10:48:14.700Z,15.47
2022-11-27T10:50:44.014Z,17.23
2022-11-27T10:53:15.769Z,17.60
2022-11-27T10:55:58.078Z,17.17
2022-11-27T10:58:33.368Z,16.83
2022-11-27T11:01:02.875Z,16.10
2022-11-27T11:03:32.255Z,16.63
2022-11-27T11:06:20.194Z,18.23
2022-11-27T11:08:49.529Z,16.50
2022-11-27T11:11:27.520Z,16.47
2022-11-27T11:13:55.957Z,16.70
2022-11-27T11:16:31.898Z,15.50
2022-11-27T11:19:06.231Z,15.93
2022-11-27T11:21:36.283Z,16.93
2022-11-27T11:24:07.523Z,15.40
2022-11-27T11:26:39.078Z,16.93
2022-11-27T11:29:29.043Z,15.63
2022-11-27T11:31:57.808Z,15.20
2022-11-27T11:34:30.098Z,15.70
2022-11-27T11:37:00.892Z,15.73
2022-11-27T11:39:31.782Z,15.97
2022-11-27T11:42:00.271Z,15.00
2022-11-27T11:44:34.164Z,14.90
2022-11-27T11:47:02.589Z,17.07
2022-11-27T11:49:35.788Z,16.50
2022-11-27T11:52:24.850Z,16.13
2022-11-27T11:55:01.381Z,15.20
2022-11-27T11:57:47.966Z,13.67
2022-11-27T12:00:18.128Z,12.80
2022-11-27T12:02:59.950Z,11.60
2022-11-27T12:05:37.991Z,11.80
2022-11-27T12:08:34.377Z,10.83
2022-11-27T12:11:09.979Z,9.87
2022-11-27T12:14:03.280Z,7.80
2022-11-27T12:16:42.074Z,7.57
2022-11-27T12:19:34.915Z,7.53
2022-11-27T12:22:18.687Z,7.17
2022-11-27T12:24:56.636Z,8.17
2022-11-27T12:27:44.595Z,8.30
2022-11-27T12:30:16.792Z,8.03
2022-11-27T12:33:00.603Z,8.10
2022-11-27T12:35:33.314Z,7.83
2022-11-27T12:38:20.684Z,7.70
2022-11-27T12:41:13.700Z,7.60
2022-11-27T12:43:46.438Z,7.57
2022-11-27T12:46:20.082Z,7.80
2022-11-27T12:48:53.140Z,7.63
2022-11-27T12:51:26.326Z,7.77
2022-11-27T12:54:00.373Z,7.40
2022-11-27T12:56:32.014Z,8.10
2022-11-27T12:59:06.025Z,8.80
2022-11-27T13:01:37.460Z,8.37
2022-11-27T13:04:18.251Z,8.73
2022-11-27T13:06:53.670Z,14.63
2022-11-27T13:09:34.818Z,11.60
2022-11-27T13:12:04.006Z,10.70
2022-11-27T13:14:36.830Z,12.23
2022-11-27T13:17:06.860Z,12.37
2022-11-27T13:19:39.982Z,11.87
2022-11-27T13:22:13.490Z,10.80
2022-11-27T13:24:43.276Z,9.90
2022-11-27T13:27:15.384Z,9.20
2022-11-27T13:29:46.945Z,9.17
2022-11-27T13:32:22.620Z,8.40
2022-11-27T13:34:52.668Z,7.93
2022-11-27T13:37:29.828Z,7.80
2022-11-27T13:40:05.404Z,7.60
2022-11-27T13:42:37.260Z,7.50
2022-11-27T13:45:11.132Z,8.17
2022-11-27T13:47:42.910Z,7.83
2022-11-27T13:50:13.904Z,7.90
2022-11-27T13:52:54.695Z,7.50
2022-11-27T13:55:30.108Z,7.93
2022-11-27T13:57:59.735Z,7.90
2022-11-27T14:00:36.877Z,8.00
2022-11-27T14:03:05.991Z,8.73
2022-11-27T14:05:41.066Z,8.60
2022-11-27T14:08:21.675Z,9.10
2022-11-27T14:10:58.588Z,9.13
2022-11-27T14:13:40.409Z,8.87
2022-11-27T14:16:25.142Z,8.97
2022-11-27T14:18:54.632Z,9.50
2022-11-27T14:21:27.180Z,10.37
2022-11-27T14:23:55.459Z,10.80
2022-11-27T14:26:26.660Z,10.53
2022-11-27T14:28:57.150Z,11.77
2022-11-27T14:31:29.928Z,12.30
2022-11-27T14:34:16.864Z,12.17
2022-11-27T14:36:45.805Z,11.50
2022-11-27T14:39:23.891Z,11.73
2022-11-27T14:42:00.742Z,12.80
2022-11-27T14:44:29.636Z,13.00
2022-11-27T14:47:00.079Z,13.87
2022-11-27T14:49:29.838Z,13.23
2022-11-27T14:52:02.020Z,13.43
2022-11-27T14:54:32.914Z,13.00
2022-11-27T14:57:03.110Z,14.53
2022-11-27T14:59:31.148Z,14.10
2022-11-27T15:02:02.286Z,14.17
2022-11-27T15:04:34.835Z,14.37
2022-11-27T15:07:06.123Z,13.90
2022-11-27T15:09:37.071Z,14.37
2022-11-27T15:12:15.306Z,14.60
2022-11-27T15:14:47.806Z,14.30
2022-11-27T15:17:20.279Z,13.40
2022-11-27T15:19:48.580Z,13.93
2022-11-27T15:22:18.536Z,15.03
2022-11-27T15:24:46.756Z,14.03
2022-11-27T15:27:21.300Z,14.57
2022-11-27T15:30:12.117Z,14.33
2022-11-27T15:32:51.553Z,16.37
2022-11-27T15:35:25.187Z,15.20
2022-11-27T15:37:54.476Z,15.83
2022-11-27T15:40:31.197Z,17.30
2022-11-27T15:43:00.642Z,18.13
2022-11-27T15:45:30.842Z,18.27
2022-11-27T15:48:00.750Z,19.13
2022-11-27T15:50:29.656Z,17.53
2022-11-27T15:52:57.729Z,17.73
2022-11-27T15:55:25.982Z,22.03
2022-11-27T15:57:53.940Z,19.03
2022-11-27T16:00:23.735Z,19.80
2022-11-27T16:02:52.480Z,19.13
2022-11-27T16:05:21.376Z,18.37
2022-11-27T16:07:54.677Z,17.20
2022-11-27T16:10:23.210Z,16.80
2022-11-27T16:12:54.968Z,17.77
2022-11-27T16:15:27.642Z,17.40
2022-11-27T16:17:59.654Z,16.10
2022-11-27T16:20:28.713Z,15.87
2022-11-27T16:22:56.746Z,15.27
2022-11-27T16:25:25.401Z,16.57
2022-11-27T16:27:57.947Z,15.77
2022-11-27T16:30:30.438Z,16.60
2022-11-27T16:32:58.376Z,16.87
2022-11-27T16:35:27.142Z,17.47
2022-11-27T16:37:55.094Z,18.87
2022-11-27T16:40:23.275Z,20.30
2022-11-27T16:42:51.274Z,22.07
2022-11-27T16:45:19.641Z,25.60
2022-11-27T16:47:49.081Z,24.23
2022-11-27T16:50:17.130Z,27.00
2022-11-27T16:52:47.082Z,27.67
2022-11-27T16:55:19.902Z,27.97
2022-11-27T16:57:48.150Z,28.43
2022-11-27T17:00:17.110Z,28.33
2022-11-27T17:02:45.374Z,28.87
2022-11-27T17:05:14.733Z,27.83
2022-11-27T17:07:42.830Z,29.53
2022-11-27T17:10:11.336Z,30.33
2022-11-27T17:12:39.244Z,30.83
2022-11-27T17:15:08.099Z,29.63
2022-11-27T17:17:40.132Z,30.13
2022-11-27T17:20:10.030Z,29.20
2022-11-27T17:22:39.355Z,29.93
2022-11-27T17:25:11.063Z,29.23
2022-11-27T17:27:39.013Z,27.73
2022-11-27T17:30:08.348Z,27.87
2022-11-27T17:32:36.371Z,29.80
2022-11-27T17:35:04.471Z,28.53
2022-11-27T17:37:32.473Z,28.07
2022-11-27T17:40:01.759Z,27.83
2022-11-27T17:42:29.809Z,28.77
2022-11-27T17:44:57.783Z,27.80
2022-11-27T17:47:25.741Z,26.97
2022-11-27T17:49:53.707Z,26.60
2022-11-27T17:52:21.698Z,27.50
2022-11-27T17:54:49.681Z,25.53
2022-11-27T17:57:19.103Z,25.30
2022-11-27T17:59:47.048Z,26.33
2022-11-27T18:02:15.142Z,25.07
2022-11-27T18:04:43.172Z,27.00
2022-11-27T18:07:11.190Z,26.40
2022-11-27T18:09:39.601Z,27.10
2022-11-27T18:12:08.570Z,27.80
2022-11-27T18:14:37.914Z,25.47
2022-11-27T18:17:07.130Z,25.80
2022-11-27T18:19:35.102Z,27.60
2022-11-27T18:22:03.255Z,27.50
2022-11-27T18:24:31.202Z,25.90
2022-11-27T18:27:08.105Z,29.47
2022-11-27T18:29:39.332Z,28.57
2022-11-27T18:32:07.804Z,28.90
2022-11-27T18:34:35.866Z,27.83
2022-11-27T18:37:04.301Z,26.87
2022-11-27T18:39:32.561Z,27.13
2022-11-27T18:42:00.586Z,30.50
2022-11-27T18:44:28.733Z,34.13
2022-11-27T18:46:58.097Z,33.53
2022-11-27T18:49:26.568Z,30.93
2022-11-27T18:51:56.382Z,27.27
2022-11-27T18:54:24.851Z,26.37
2022-11-27T18:56:52.856Z,26.83
2022-11-27T18:59:20.813Z,26.57
2022-11-27T19:01:49.101Z,29.00
2022-11-27T19:04:18.798Z,25.83
2022-11-27T19:06:47.230Z,25.47
2022-11-27T19:09:16.257Z,24.10
2022-11-27T19:11:44.382Z,24.13
2022-11-27T19:14:12.506Z,24.20
2022-11-27T19:16:46.085Z,24.63
2022-11-27T19:19:52.725Z,23.37
2022-11-27T19:22:05.587Z,23.73
2022-11-27T19:24:33.539Z,24.60
2022-11-27T19:27:01.501Z,23.93
2022-11-27T19:29:29.489Z,29.20
2022-11-27T19:31:58.874Z,29.33
2022-11-27T19:34:27.108Z,25.53
2022-11-27T19:36:55.837Z,27.53
2022-11-27T19:39:26.956Z,29.67
2022-11-27T19:41:54.938Z,28.40
2022-11-27T19:44:23.001Z,28.80
2022-11-27T19:46:50.985Z,30.30
2022-11-27T19:49:19.304Z,28.80
2022-11-27T19:51:47.684Z,29.37
2022-11-27T19:54:19.117Z,28.70
2022-11-27T19:56:48.454Z,28.90
2022-11-27T19:59:17.657Z,35.73
2022-11-27T20:01:48.327Z,41.87
2022-11-27T20:04:16.376Z,53.07
2022-11-27T20:06:44.378Z,52.83
2022-11-27T20:09:14.008Z,59.07
2022-11-27T20:11:42.037Z,62.53
2022-11-27T20:14:12.310Z,61.80
2022-11-27T20:16:40.417Z,55.17
2022-11-27T20:19:08.476Z,55.67
2022-11-27T20:21:39.435Z,48.47
2022-11-27T20:24:07.759Z,46.27
2022-11-27T20:26:41.317Z,42.93
2022-11-27T20:29:12.599Z,43.77
2022-11-27T20:31:43.822Z,44.20
2022-11-27T20:34:16.194Z,48.23
2022-11-27T20:36:44.171Z,47.93
2022-11-27T20:39:16.404Z,44.23
2022-11-27T20:41:49.577Z,44.70
2022-11-27T20:44:19.007Z,43.97
2022-11-27T20:46:47.201Z,43.03
2022-11-27T20:49:15.638Z,42.30
2022-11-27T20:51:43.892Z,52.10
2022-11-27T20:54:12.544Z,72.50
2022-11-27T20:56:41.174Z,70.30
2022-11-27T20:59:09.151Z,64.07
2022-11-27T21:01:39.376Z,75.63
2022-11-27T21:04:17.477Z,83.57
2022-11-27T21:06:45.491Z,86.60
2022-11-27T21:09:14.241Z,73.43
2022-11-27T21:11:43.081Z,64.67
2022-11-27T21:14:13.651Z,61.83
2022-11-27T21:16:46.110Z,59.07
2022-11-27T21:19:17.462Z,58.93
2022-11-27T21:21:45.709Z,58.93
2022-11-27T21:24:14.335Z,58.73
2022-11-27T21:26:42.803Z,58.03
2022-11-27T21:29:13.283Z,60.63
2022-11-27T21:31:46.840Z,61.07
2022-11-27T21:34:15.890Z,59.27
2022-11-27T21:36:43.893Z,59.30
2022-11-27T21:39:13.520Z,60.07
2022-11-27T21:41:41.533Z,60.23
2022-11-27T21:44:09.553Z,59.30
2022-11-27T21:46:37.765Z,59.77
2022-11-27T21:49:07.177Z,55.87
2022-11-27T21:51:35.181Z,53.83
2022-11-27T21:54:03.185Z,56.73
2022-11-27T21:56:33.961Z,53.87
2022-11-27T21:59:01.937Z,59.03
2022-11-27T22:01:30.174Z,61.03
2022-11-27T22:03:58.904Z,59.70
2022-11-27T22:06:31.651Z,60.80
2022-11-27T22:09:00.352Z,57.70
2022-11-27T22:11:30.843Z,56.97
2022-11-27T22:13:59.836Z,57.80
2022-11-27T22:16:30.552Z,58.20
2022-11-27T22:18:59.969Z,53.43
2022-11-27T22:21:30.309Z,50.40
2022-11-27T22:23:59.563Z,54.40
2022-11-27T22:26:28.267Z,51.30
2022-11-27T22:28:58.589Z,50.80
2022-11-27T22:31:30.172Z,43.40
2022-11-27T22:33:58.983Z,42.87
2022-11-27T22:36:31.374Z,42.63
2022-11-27T22:39:01.334Z,39.60
2022-11-27T22:41:32.023Z,36.03
2022-11-27T22:44:00.518Z,34.50
2022-11-27T22:46:32.314Z,32.37
2022-11-27T22:49:01.904Z,30.17
2022-11-27T22:51:32.968Z,29.77
2022-11-27T22:54:01.827Z,27.83
2022-11-27T22:56:29.962Z,28.03
2022-11-27T22:59:24.835Z,27.83
2022-11-27T23:01:48.560Z,25.53
2022-11-27T23:04:16.972Z,26.60
2022-11-27T23:06:48.423Z,26.43
2022-11-27T23:09:17.780Z,25.77
2022-11-27T23:11:46.267Z,26.50
2022-11-27T23:14:14.550Z,27.97
2022-11-27T23:16:42.759Z,26.13
2022-11-27T23:19:11.292Z,25.87
2022-11-27T23:21:39.866Z,25.97
2022-11-27T23:24:12.504Z,26.00
2022-11-27T23:26:40.586Z,25.93
2022-11-27T23:29:08.865Z,25.47
2022-11-27T23:31:36.985Z,25.23
2022-11-27T23:34:08.312Z,25.00
2022-11-27T23:36:37.178Z,27.20
2022-11-27T23:39:08.252Z,28.53
2022-11-27T23:41:37.852Z,29.50
2022-11-27T23:44:05.996Z,29.90
2022-11-27T23:46:33.983Z,31.67
2022-11-27T23:49:02.338Z,33.80
2022-11-27T23:51:31.989Z,36.27
2022-11-27T23:54:00.423Z,34.87
2022-11-27T23:56:30.462Z,37.43
2022-11-27T23:59:00.432Z,37.17
